sensor_id;sensor_type;location;lat;lon;timestamp;temperature;humidity
20432;DHT22;10375;49.136;10.366;2024-01-11T00:00:58;-7.20;99.90
20432;DHT22;10375;49.136;10.366;2024-01-11T00:03:26;-7.20;99.90
20432;DHT22;10375;49.136;10.366;2024-01-11T00:05:53;-7.20;99.90
20432;DHT22;10375;49.136;10.366;2024-01-11T00:08:20;-7.10;99.90
20432;DHT22;10375;49.136;10.366;2024-01-11T00:10:47;-7.10;99.90
20432;DHT22;10375;49.136;10.366;2024-01-11T00:13:14;-7.10;99.90
20432;DHT22;10375;49.136;10.366;2024-01-11T00:15:42;-7.20;99.90
20432;DHT22;10375;49.136;10.366;2024-01-11T00:18:09;-7.20;99.90
20432;DHT22;10375;49.136;10.366;2024-01-11T00:20:36;-7.30;99.90
20432;DHT22;10375;49.136;10.366;2024-01-11T00:23:03;-7.30;99.90
20432;DHT22;10375;49.136;10.366;2024-01-11T00:25:30;-7.30;99.90
20432;DHT22;10375;49.136;10.366;2024-01-11T00:27:57;-7.30;99.90
20432;DHT22;10375;49.136;10.366;2024-01-11T00:30:24;-7.20;99.90
20432;DHT22;10375;49.136;10.366;2024-01-11T00:32:51;-7.30;99.90
20432;DHT22;10375;49.136;10.366;2024-01-11T00:35:19;-7.20;99.90
20432;DHT22;10375;49.136;10.366;2024-01-11T00:37:46;-7.30;99.90
20432;DHT22;10375;49.136;10.366;2024-01-11T00:40:13;-7.20;99.90
20432;DHT22;10375;49.136;10.366;2024-01-11T00:42:40;-7.30;99.90
20432;DHT22;10375;49.136;10.366;2024-01-11T00:45:08;-7.30;99.90
20432;DHT22;10375;49.136;10.366;2024-01-11T00:47:35;-7.30;99.90
20432;DHT22;10375;49.136;10.366;2024-01-11T00:50:02;-7.20;99.90
20432;DHT22;10375;49.136;10.366;2024-01-11T00:52:30;-7.20;99.90
20432;DHT22;10375;49.136;10.366;2024-01-11T00:54:57;-7.20;99.90
20432;DHT22;10375;49.136;10.366;2024-01-11T00:57:24;-7.30;99.90
20432;DHT22;10375;49.136;10.366;2024-01-11T00:59:51;-7.20;99.90
20432;DHT22;10375;49.136;10.366;2024-01-11T01:02:20;-7.20;99.90
20432;DHT22;10375;49.136;10.366;2024-01-11T01:04:48;-7.20;99.90
20432;DHT22;10375;49.136;10.366;2024-01-11T01:07:15;-7.20;99.90
20432;DHT22;10375;49.136;10.366;2024-01-11T01:09:42;-7.20;99.90
20432;DHT22;10375;49.136;10.366;2024-01-11T01:12:09;-7.30;99.90
20432;DHT22;10375;49.136;10.366;2024-01-11T01:14:36;-7.30;99.90
20432;DHT22;10375;49.136;10.366;2024-01-11T01:17:03;-7.40;99.90
20432;DHT22;10375;49.136;10.366;2024-01-11T01:19:30;-7.30;99.90
20432;DHT22;10375;49.136;10.366;2024-01-11T01:21:57;-7.40;99.90
20432;DHT22;10375;49.136;10.366;2024-01-11T01:24:24;-7.40;99.90
20432;DHT22;10375;49.136;10.366;2024-01-11T01:26:52;-7.40;99.90
20432;DHT22;10375;49.136;10.366;2024-01-11T01:29:19;-7.40;99.90
20432;DHT22;10375;49.136;10.366;2024-01-11T01:31:46;-7.40;99.90
20432;DHT22;10375;49.136;10.366;2024-01-11T01:34:13;-7.40;99.90
20432;DHT22;10375;49.136;10.366;2024-01-11T01:36:41;-7.50;99.90
20432;DHT22;10375;49.136;10.366;2024-01-11T01:39:08;-7.50;99.90
20432;DHT22;10375;49.136;10.366;2024-01-11T01:41:35;-7.50;99.90
20432;DHT22;10375;49.136;10.366;2024-01-11T01:44:03;-7.50;99.90
20432;DHT22;10375;49.136;10.366;2024-01-11T01:46:30;-7.40;99.90
20432;DHT22;10375;49.136;10.366;2024-01-11T01:48:58;-7.40;99.90
20432;DHT22;10375;49.136;10.366;2024-01-11T01:51:29;-7.40;99.90
20432;DHT22;10375;49.136;10.366;2024-01-11T01:53:56;-7.40;99.90
20432;DHT22;10375;49.136;10.366;2024-01-11T01:56:24;-7.30;99.90
20432;DHT22;10375;49.136;10.366;2024-01-11T01:58:52;-7.40;99.90
20432;DHT22;10375;49.136;10.366;2024-01-11T02:01:21;-7.40;99.90
20432;DHT22;10375;49.136;10.366;2024-01-11T02:03:50;-7.30;99.90
20432;DHT22;10375;49.136;10.366;2024-01-11T02:06:22;-7.40;99.90
20432;DHT22;10375;49.136;10.366;2024-01-11T02:08:52;-7.40;99.90
20432;DHT22;10375;49.136;10.366;2024-01-11T02:11:22;-7.40;99.90
20432;DHT22;10375;49.136;10.366;2024-01-11T02:13:50;-7.40;99.90
20432;DHT22;10375;49.136;10.366;2024-01-11T02:16:18;-7.50;99.90
20432;DHT22;10375;49.136;10.366;2024-01-11T02:18:45;-7.50;99.90
20432;DHT22;10375;49.136;10.366;2024-01-11T02:21:14;-7.50;99.90
20432;DHT22;10375;49.136;10.366;2024-01-11T02:23:44;-7.50;99.90
20432;DHT22;10375;49.136;10.366;2024-01-11T02:26:13;-7.50;99.90
20432;DHT22;10375;49.136;10.366;2024-01-11T02:28:45;-7.50;99.90
20432;DHT22;10375;49.136;10.366;2024-01-11T02:31:15;-7.40;99.90
20432;DHT22;10375;49.136;10.366;2024-01-11T02:33:43;-7.50;99.90
20432;DHT22;10375;49.136;10.366;2024-01-11T02:36:10;-7.40;99.90
20432;DHT22;10375;49.136;10.366;2024-01-11T02:38:38;-7.40;99.90
20432;DHT22;10375;49.136;10.366;2024-01-11T02:41:06;-7.40;99.90
20432;DHT22;10375;49.136;10.366;2024-01-11T02:43:34;-7.40;99.90
20432;DHT22;10375;49.136;10.366;2024-01-11T02:46:04;-7.40;99.90
20432;DHT22;10375;49.136;10.366;2024-01-11T02:48:31;-7.40;99.90
20432;DHT22;10375;49.136;10.366;2024-01-11T02:50:59;-7.40;99.90
20432;DHT22;10375;49.136;10.366;2024-01-11T02:53:26;-7.40;99.90
20432;DHT22;10375;49.136;10.366;2024-01-11T02:55:53;-7.40;99.90
20432;DHT22;10375;49.136;10.366;2024-01-11T02:58:20;-7.40;99.90
20432;DHT22;10375;49.136;10.366;2024-01-11T03:00:47;-7.40;99.90
20432;DHT22;10375;49.136;10.366;2024-01-11T03:03:14;-7.40;99.90
20432;DHT22;10375;49.136;10.366;2024-01-11T03:05:42;-7.50;99.90
20432;DHT22;10375;49.136;10.366;2024-01-11T03:08:09;-7.50;99.90
20432;DHT22;10375;49.136;10.366;2024-01-11T03:10:39;-7.50;99.90
20432;DHT22;10375;49.136;10.366;2024-01-11T03:13:07;-7.60;99.90
20432;DHT22;10375;49.136;10.366;2024-01-11T03:15:34;-7.60;99.90
20432;DHT22;10375;49.136;10.366;2024-01-11T03:18:01;-7.70;99.90
20432;DHT22;10375;49.136;10.366;2024-01-11T03:20:28;-7.70;99.90
20432;DHT22;10375;49.136;10.366;2024-01-11T03:22:56;-7.60;99.90
20432;DHT22;10375;49.136;10.366;2024-01-11T03:25:23;-7.60;99.90
20432;DHT22;10375;49.136;10.366;2024-01-11T03:27:50;-7.60;99.90
20432;DHT22;10375;49.136;10.366;2024-01-11T03:30:17;-7.60;99.90
20432;DHT22;10375;49.136;10.366;2024-01-11T03:32:45;-7.50;99.90
20432;DHT22;10375;49.136;10.366;2024-01-11T03:35:13;-7.60;99.90
20432;DHT22;10375;49.136;10.366;2024-01-11T03:37:40;-7.50;99.90
20432;DHT22;10375;49.136;10.366;2024-01-11T03:40:07;-7.60;99.90
20432;DHT22;10375;49.136;10.366;2024-01-11T03:42:34;-7.60;99.90
20432;DHT22;10375;49.136;10.366;2024-01-11T03:45:02;-7.60;99.90
20432;DHT22;10375;49.136;10.366;2024-01-11T03:47:30;-7.60;99.90
20432;DHT22;10375;49.136;10.366;2024-01-11T03:49:57;-7.60;99.90
20432;DHT22;10375;49.136;10.366;2024-01-11T03:52:24;-7.60;99.90
20432;DHT22;10375;49.136;10.366;2024-01-11T03:54:51;-7.70;99.90
20432;DHT22;10375;49.136;10.366;2024-01-11T03:57:18;-7.70;99.90
20432;DHT22;10375;49.136;10.366;2024-01-11T03:59:45;-7.70;99.90
20432;DHT22;10375;49.136;10.366;2024-01-11T04:02:13;-7.70;99.90
20432;DHT22;10375;49.136;10.366;2024-01-11T04:04:41;-7.80;99.90
20432;DHT22;10375;49.136;10.366;2024-01-11T04:07:08;-7.90;99.90
20432;DHT22;10375;49.136;10.366;2024-01-11T04:09:40;-7.90;99.90
20432;DHT22;10375;49.136;10.366;2024-01-11T04:12:07;-7.80;99.90
20432;DHT22;10375;49.136;10.366;2024-01-11T04:14:38;-7.80;99.90
20432;DHT22;10375;49.136;10.366;2024-01-11T04:17:06;-7.90;99.90
20432;DHT22;10375;49.136;10.366;2024-01-11T04:19:34;-7.90;99.90
20432;DHT22;10375;49.136;10.366;2024-01-11T04:22:01;-7.90;99.90
20432;DHT22;10375;49.136;10.366;2024-01-11T04:24:28;-8.00;99.90
20432;DHT22;10375;49.136;10.366;2024-01-11T04:26:55;-8.00;99.90
20432;DHT22;10375;49.136;10.366;2024-01-11T04:29:22;-7.90;99.90
20432;DHT22;10375;49.136;10.366;2024-01-11T04:31:49;-7.90;99.90
20432;DHT22;10375;49.136;10.366;2024-01-11T04:34:16;-7.90;99.90
20432;DHT22;10375;49.136;10.366;2024-01-11T04:36:44;-7.90;99.90
20432;DHT22;10375;49.136;10.366;2024-01-11T04:39:11;-7.90;99.90
20432;DHT22;10375;49.136;10.366;2024-01-11T04:41:39;-7.90;99.90
20432;DHT22;10375;49.136;10.366;2024-01-11T04:44:06;-7.80;99.90
20432;DHT22;10375;49.136;10.366;2024-01-11T04:46:35;-7.90;99.90
20432;DHT22;10375;49.136;10.366;2024-01-11T04:49:02;-7.90;99.90
20432;DHT22;10375;49.136;10.366;2024-01-11T04:51:29;-7.90;99.90
20432;DHT22;10375;49.136;10.366;2024-01-11T04:53:56;-8.00;99.90
20432;DHT22;10375;49.136;10.366;2024-01-11T04:56:23;-8.10;99.90
20432;DHT22;10375;49.136;10.366;2024-01-11T04:58:51;-8.10;99.90
20432;DHT22;10375;49.136;10.366;2024-01-11T05:01:18;-8.10;99.90
20432;DHT22;10375;49.136;10.366;2024-01-11T05:03:46;-8.00;99.90
20432;DHT22;10375;49.136;10.366;2024-01-11T05:06:21;-8.00;99.90
20432;DHT22;10375;49.136;10.366;2024-01-11T05:08:52;-7.90;99.90
20432;DHT22;10375;49.136;10.366;2024-01-11T05:11:21;-7.80;99.90
20432;DHT22;10375;49.136;10.366;2024-01-11T05:13:51;-7.90;99.90
20432;DHT22;10375;49.136;10.366;2024-01-11T05:16:22;-7.90;99.90
20432;DHT22;10375;49.136;10.366;2024-01-11T05:18:53;-8.00;99.90
20432;DHT22;10375;49.136;10.366;2024-01-11T05:21:21;-8.10;99.90
20432;DHT22;10375;49.136;10.366;2024-01-11T05:23:49;-8.10;99.90
20432;DHT22;10375;49.136;10.366;2024-01-11T05:26:16;-8.10;99.90
20432;DHT22;10375;49.136;10.366;2024-01-11T05:28:44;-8.10;99.90
20432;DHT22;10375;49.136;10.366;2024-01-11T05:31:13;-8.10;99.90
20432;DHT22;10375;49.136;10.366;2024-01-11T05:33:42;-8.00;99.90
20432;DHT22;10375;49.136;10.366;2024-01-11T05:36:10;-8.00;99.90
20432;DHT22;10375;49.136;10.366;2024-01-11T05:38:39;-8.00;99.90
20432;DHT22;10375;49.136;10.366;2024-01-11T05:41:06;-8.00;99.90
20432;DHT22;10375;49.136;10.366;2024-01-11T05:43:35;-8.00;99.90
20432;DHT22;10375;49.136;10.366;2024-01-11T05:46:02;-8.10;99.90
20432;DHT22;10375;49.136;10.366;2024-01-11T05:48:30;-8.10;99.90
20432;DHT22;10375;49.136;10.366;2024-01-11T05:50:57;-8.10;99.90
20432;DHT22;10375;49.136;10.366;2024-01-11T05:53:24;-8.10;99.90
20432;DHT22;10375;49.136;10.366;2024-01-11T05:55:53;-8.10;99.90
20432;DHT22;10375;49.136;10.366;2024-01-11T05:58:21;-8.10;99.90
20432;DHT22;10375;49.136;10.366;2024-01-11T06:00:48;-8.20;99.90
20432;DHT22;10375;49.136;10.366;2024-01-11T06:03:15;-8.20;99.90
20432;DHT22;10375;49.136;10.366;2024-01-11T06:05:43;-8.20;99.90
20432;DHT22;10375;49.136;10.366;2024-01-11T06:08:10;-8.30;99.90
20432;DHT22;10375;49.136;10.366;2024-01-11T06:10:39;-8.30;99.90
20432;DHT22;10375;49.136;10.366;2024-01-11T06:13:06;-8.40;99.90
20432;DHT22;10375;49.136;10.366;2024-01-11T06:15:33;-8.40;99.90
20432;DHT22;10375;49.136;10.366;2024-01-11T06:18:00;-8.40;99.90
20432;DHT22;10375;49.136;10.366;2024-01-11T06:20:28;-8.50;99.90
20432;DHT22;10375;49.136;10.366;2024-01-11T06:22:55;-8.40;99.90
20432;DHT22;10375;49.136;10.366;2024-01-11T06:25:22;-8.40;99.90
20432;DHT22;10375;49.136;10.366;2024-01-11T06:27:49;-8.30;99.90
20432;DHT22;10375;49.136;10.366;2024-01-11T06:30:16;-8.30;99.90
20432;DHT22;10375;49.136;10.366;2024-01-11T06:32:44;-8.30;99.90
20432;DHT22;10375;49.136;10.366;2024-01-11T06:35:12;-8.30;99.90
20432;DHT22;10375;49.136;10.366;2024-01-11T06:37:39;-8.20;99.90
20432;DHT22;10375;49.136;10.366;2024-01-11T06:40:07;-8.20;99.90
20432;DHT22;10375;49.136;10.366;2024-01-11T06:42:35;-8.30;99.90
20432;DHT22;10375;49.136;10.366;2024-01-11T06:45:02;-8.30;99.90
20432;DHT22;10375;49.136;10.366;2024-01-11T06:47:30;-8.20;99.90
20432;DHT22;10375;49.136;10.366;2024-01-11T06:49:57;-8.20;99.90
20432;DHT22;10375;49.136;10.366;2024-01-11T06:52:26;-8.20;99.90
20432;DHT22;10375;49.136;10.366;2024-01-11T06:54:53;-8.30;99.90
20432;DHT22;10375;49.136;10.366;2024-01-11T06:57:20;-8.40;99.90
20432;DHT22;10375;49.136;10.366;2024-01-11T06:59:47;-8.30;99.90
20432;DHT22;10375;49.136;10.366;2024-01-11T07:02:15;-8.30;99.90
20432;DHT22;10375;49.136;10.366;2024-01-11T07:04:46;-8.40;99.90
20432;DHT22;10375;49.136;10.366;2024-01-11T07:07:13;-8.40;99.90
20432;DHT22;10375;49.136;10.366;2024-01-11T07:09:40;-8.40;99.90
20432;DHT22;10375;49.136;10.366;2024-01-11T07:12:07;-8.40;99.90
20432;DHT22;10375;49.136;10.366;2024-01-11T07:14:35;-8.40;99.90
20432;DHT22;10375;49.136;10.366;2024-01-11T07:17:02;-8.40;99.90
20432;DHT22;10375;49.136;10.366;2024-01-11T07:19:31;-8.30;99.90
20432;DHT22;10375;49.136;10.366;2024-01-11T07:21:58;-8.20;99.90
20432;DHT22;10375;49.136;10.366;2024-01-11T07:24:26;-8.20;99.90
20432;DHT22;10375;49.136;10.366;2024-01-11T07:26:53;-8.20;99.90
20432;DHT22;10375;49.136;10.366;2024-01-11T07:29:21;-8.20;99.90
20432;DHT22;10375;49.136;10.366;2024-01-11T07:31:48;-8.20;99.90
20432;DHT22;10375;49.136;10.366;2024-01-11T07:34:15;-8.20;99.90
20432;DHT22;10375;49.136;10.366;2024-01-11T07:36:42;-8.20;99.90
20432;DHT22;10375;49.136;10.366;2024-01-11T07:39:09;-8.20;99.90
20432;DHT22;10375;49.136;10.366;2024-01-11T07:41:36;-8.10;99.90
20432;DHT22;10375;49.136;10.366;2024-01-11T07:44:04;-8.00;99.90
20432;DHT22;10375;49.136;10.366;2024-01-11T07:46:31;-7.90;99.90
20432;DHT22;10375;49.136;10.366;2024-01-11T07:49:08;-7.70;99.90
20432;DHT22;10375;49.136;10.366;2024-01-11T07:51:35;-7.70;99.90
20432;DHT22;10375;49.136;10.366;2024-01-11T07:54:02;-7.50;99.90
20432;DHT22;10375;49.136;10.366;2024-01-11T07:56:29;-7.40;99.90
20432;DHT22;10375;49.136;10.366;2024-01-11T07:58:57;-7.40;99.90
20432;DHT22;10375;49.136;10.366;2024-01-11T08:01:24;-7.30;99.90
20432;DHT22;10375;49.136;10.366;2024-01-11T08:03:51;-7.30;99.90
20432;DHT22;10375;49.136;10.366;2024-01-11T08:06:21;-7.20;99.90
20432;DHT22;10375;49.136;10.366;2024-01-11T08:08:49;-7.10;99.90
20432;DHT22;10375;49.136;10.366;2024-01-11T08:11:19;-7.00;99.90
20432;DHT22;10375;49.136;10.366;2024-01-11T08:13:47;-6.80;99.90
20432;DHT22;10375;49.136;10.366;2024-01-11T08:16:18;-6.70;99.90
20432;DHT22;10375;49.136;10.366;2024-01-11T08:18:45;-6.50;99.90
20432;DHT22;10375;49.136;10.366;2024-01-11T08:21:13;-6.30;99.90
20432;DHT22;10375;49.136;10.366;2024-01-11T08:23:41;-6.20;99.90
20432;DHT22;10375;49.136;10.366;2024-01-11T08:26:13;-5.90;99.90
20432;DHT22;10375;49.136;10.366;2024-01-11T08:28:41;-5.10;99.90
20432;DHT22;10375;49.136;10.366;2024-01-11T08:31:10;-4.50;99.90
20432;DHT22;10375;49.136;10.366;2024-01-11T08:33:37;-3.90;99.90
20432;DHT22;10375;49.136;10.366;2024-01-11T08:36:05;-3.00;99.90
20432;DHT22;10375;49.136;10.366;2024-01-11T08:38:34;-2.20;99.90
20432;DHT22;10375;49.136;10.366;2024-01-11T08:41:02;-1.40;99.90
20432;DHT22;10375;49.136;10.366;2024-01-11T08:43:30;-0.90;99.90
20432;DHT22;10375;49.136;10.366;2024-01-11T08:45:58;-0.80;99.90
20432;DHT22;10375;49.136;10.366;2024-01-11T08:48:26;-0.70;99.90
20432;DHT22;10375;49.136;10.366;2024-01-11T08:50:55;-0.40;99.90
20432;DHT22;10375;49.136;10.366;2024-01-11T08:53:22;0.10;99.90
20432;DHT22;10375;49.136;10.366;2024-01-11T08:55:49;0.30;99.90
20432;DHT22;10375;49.136;10.366;2024-01-11T08:58:16;0.50;99.90
20432;DHT22;10375;49.136;10.366;2024-01-11T09:00:43;0.80;99.90
20432;DHT22;10375;49.136;10.366;2024-01-11T09:03:11;0.90;99.90
20432;DHT22;10375;49.136;10.366;2024-01-11T09:05:40;1.00;99.90
20432;DHT22;10375;49.136;10.366;2024-01-11T09:08:08;0.90;99.90
20432;DHT22;10375;49.136;10.366;2024-01-11T09:10:35;0.80;99.90
20432;DHT22;10375;49.136;10.366;2024-01-11T09:13:02;0.70;99.90
20432;DHT22;10375;49.136;10.366;2024-01-11T09:15:30;0.60;99.90
20432;DHT22;10375;49.136;10.366;2024-01-11T09:17:57;0.20;99.90
20432;DHT22;10375;49.136;10.366;2024-01-11T09:20:27;0.10;99.90
20432;DHT22;10375;49.136;10.366;2024-01-11T09:22:54;0.10;99.90
20432;DHT22;10375;49.136;10.366;2024-01-11T09:25:21;0.10;99.90
20432;DHT22;10375;49.136;10.366;2024-01-11T09:27:48;0.10;99.90
20432;DHT22;10375;49.136;10.366;2024-01-11T09:30:16;0.30;99.90
20432;DHT22;10375;49.136;10.366;2024-01-11T09:32:44;0.30;99.90
20432;DHT22;10375;49.136;10.366;2024-01-11T09:35:11;0.30;99.90
20432;DHT22;10375;49.136;10.366;2024-01-11T09:37:42;0.30;99.90
20432;DHT22;10375;49.136;10.366;2024-01-11T09:40:13;0.20;99.90
20432;DHT22;10375;49.136;10.366;2024-01-11T09:42:41;0.20;99.90
20432;DHT22;10375;49.136;10.366;2024-01-11T09:45:16;0.20;99.90
20432;DHT22;10375;49.136;10.366;2024-01-11T09:47:44;0.40;99.90
20432;DHT22;10375;49.136;10.366;2024-01-11T09:50:21;0.50;99.90
20432;DHT22;10375;49.136;10.366;2024-01-11T09:53:09;0.40;99.90
20432;DHT22;10375;49.136;10.366;2024-01-11T09:55:36;0.20;99.90
20432;DHT22;10375;49.136;10.366;2024-01-11T09:58:04;0.20;99.90
20432;DHT22;10375;49.136;10.366;2024-01-11T10:00:32;0.20;99.90
20432;DHT22;10375;49.136;10.366;2024-01-11T10:03:00;0.20;99.90
20432;DHT22;10375;49.136;10.366;2024-01-11T10:05:27;0.10;99.90
20432;DHT22;10375;49.136;10.366;2024-01-11T10:07:56;0.00;99.90
20432;DHT22;10375;49.136;10.366;2024-01-11T10:10:23;-0.10;99.90
20432;DHT22;10375;49.136;10.366;2024-01-11T10:12:50;-0.20;99.90
20432;DHT22;10375;49.136;10.366;2024-01-11T10:15:17;-0.20;99.90
20432;DHT22;10375;49.136;10.366;2024-01-11T10:17:45;-0.10;99.90
20432;DHT22;10375;49.136;10.366;2024-01-11T10:20:13;0.10;99.90
20432;DHT22;10375;49.136;10.366;2024-01-11T10:22:42;0.20;99.90
20432;DHT22;10375;49.136;10.366;2024-01-11T10:25:13;0.30;99.90
20432;DHT22;10375;49.136;10.366;2024-01-11T10:27:43;0.40;99.90
20432;DHT22;10375;49.136;10.366;2024-01-11T10:30:13;0.50;99.90
20432;DHT22;10375;49.136;10.366;2024-01-11T10:32:44;0.60;99.90
20432;DHT22;10375;49.136;10.366;2024-01-11T10:35:12;0.80;99.90
20432;DHT22;10375;49.136;10.366;2024-01-11T10:37:41;0.70;99.90
20432;DHT22;10375;49.136;10.366;2024-01-11T10:40:11;0.60;99.90
20432;DHT22;10375;49.136;10.366;2024-01-11T10:42:44;0.60;99.90
20432;DHT22;10375;49.136;10.366;2024-01-11T10:45:19;0.30;99.90
20432;DHT22;10375;49.136;10.366;2024-01-11T10:48:01;-0.10;99.90
20432;DHT22;10375;49.136;10.366;2024-01-11T10:50:34;-0.10;99.90
20432;DHT22;10375;49.136;10.366;2024-01-11T10:53:08;0.20;99.90
20432;DHT22;10375;49.136;10.366;2024-01-11T10:55:38;0.30;99.90
20432;DHT22;10375;49.136;10.366;2024-01-11T10:58:06;0.20;99.90
20432;DHT22;10375;49.136;10.366;2024-01-11T11:00:35;0.10;99.90
20432;DHT22;10375;49.136;10.366;2024-01-11T11:03:03;0.10;99.90
20432;DHT22;10375;49.136;10.366;2024-01-11T11:05:34;0.40;99.90
20432;DHT22;10375;49.136;10.366;2024-01-11T11:08:03;0.50;99.90
20432;DHT22;10375;49.136;10.366;2024-01-11T11:10:34;0.70;99.90
20432;DHT22;10375;49.136;10.366;2024-01-11T11:13:02;0.80;99.90
20432;DHT22;10375;49.136;10.366;2024-01-11T11:15:31;0.80;99.90
20432;DHT22;10375;49.136;10.366;2024-01-11T11:17:58;0.90;99.90
20432;DHT22;10375;49.136;10.366;2024-01-11T11:20:28;0.90;99.90
20432;DHT22;10375;49.136;10.366;2024-01-11T11:23:08;0.90;99.90
20432;DHT22;10375;49.136;10.366;2024-01-11T11:25:40;0.80;99.90
20432;DHT22;10375;49.136;10.366;2024-01-11T11:28:07;0.60;99.90
20432;DHT22;10375;49.136;10.366;2024-01-11T11:30:40;0.40;99.90
20432;DHT22;10375;49.136;10.366;2024-01-11T11:33:21;0.20;99.90
20432;DHT22;10375;49.136;10.366;2024-01-11T11:35:52;0.20;99.90
20432;DHT22;10375;49.136;10.366;2024-01-11T11:38:22;0.20;99.90
20432;DHT22;10375;49.136;10.366;2024-01-11T11:40:52;0.20;99.90
20432;DHT22;10375;49.136;10.366;2024-01-11T11:43:23;0.30;99.90
20432;DHT22;10375;49.136;10.366;2024-01-11T11:45:52;0.30;99.90
20432;DHT22;10375;49.136;10.366;2024-01-11T11:53:34;0.30;99.90
20432;DHT22;10375;49.136;10.366;2024-01-11T11:56:03;0.30;99.90
20432;DHT22;10375;49.136;10.366;2024-01-11T11:58:31;0.30;99.90
20432;DHT22;10375;49.136;10.366;2024-01-11T12:00:59;0.30;99.90
20432;DHT22;10375;49.136;10.366;2024-01-11T12:03:35;0.30;99.90
20432;DHT22;10375;49.136;10.366;2024-01-11T12:06:07;0.30;99.90
20432;DHT22;10375;49.136;10.366;2024-01-11T12:08:36;0.40;99.90
20432;DHT22;10375;49.136;10.366;2024-01-11T12:11:04;0.30;99.90
20432;DHT22;10375;49.136;10.366;2024-01-11T12:13:32;0.40;99.90
20432;DHT22;10375;49.136;10.366;2024-01-11T12:16:00;0.50;99.90
20432;DHT22;10375;49.136;10.366;2024-01-11T12:18:28;0.50;99.90
20432;DHT22;10375;49.136;10.366;2024-01-11T12:20:56;0.60;99.90
20432;DHT22;10375;49.136;10.366;2024-01-11T12:23:23;0.70;99.90
20432;DHT22;10375;49.136;10.366;2024-01-11T12:25:50;0.80;99.90
20432;DHT22;10375;49.136;10.366;2024-01-11T12:28:17;1.00;99.90
20432;DHT22;10375;49.136;10.366;2024-01-11T12:30:45;1.00;99.90
20432;DHT22;10375;49.136;10.366;2024-01-11T12:33:13;1.00;99.90
20432;DHT22;10375;49.136;10.366;2024-01-11T12:35:41;1.10;99.90
20432;DHT22;10375;49.136;10.366;2024-01-11T12:38:08;1.10;99.90
20432;DHT22;10375;49.136;10.366;2024-01-11T12:40:39;1.30;99.90
20432;DHT22;10375;49.136;10.366;2024-01-11T12:43:11;1.40;99.90
20432;DHT22;10375;49.136;10.366;2024-01-11T12:45:39;1.30;99.90
20432;DHT22;10375;49.136;10.366;2024-01-11T12:48:09;1.30;99.90
20432;DHT22;10375;49.136;10.366;2024-01-11T12:50:40;1.40;99.90
20432;DHT22;10375;49.136;10.366;2024-01-11T12:53:15;1.30;99.90
20432;DHT22;10375;49.136;10.366;2024-01-11T12:55:48;1.40;99.90
20432;DHT22;10375;49.136;10.366;2024-01-11T12:58:24;1.50;99.90
20432;DHT22;10375;49.136;10.366;2024-01-11T13:00:54;1.70;99.90
20432;DHT22;10375;49.136;10.366;2024-01-11T13:03:22;1.90;99.90
20432;DHT22;10375;49.136;10.366;2024-01-11T13:05:51;2.00;99.90
20432;DHT22;10375;49.136;10.366;2024-01-11T13:08:18;2.00;99.90
20432;DHT22;10375;49.136;10.366;2024-01-11T13:10:47;2.00;99.90
20432;DHT22;10375;49.136;10.366;2024-01-11T13:13:15;2.00;99.90
20432;DHT22;10375;49.136;10.366;2024-01-11T13:15:45;2.10;99.90
20432;DHT22;10375;49.136;10.366;2024-01-11T13:18:13;2.10;99.90
20432;DHT22;10375;49.136;10.366;2024-01-11T13:20:40;2.10;99.90
20432;DHT22;10375;49.136;10.366;2024-01-11T13:23:15;2.20;99.90
20432;DHT22;10375;49.136;10.366;2024-01-11T13:25:44;2.20;99.90
20432;DHT22;10375;49.136;10.366;2024-01-11T13:28:12;2.20;99.90
20432;DHT22;10375;49.136;10.366;2024-01-11T13:30:40;2.30;99.90
20432;DHT22;10375;49.136;10.366;2024-01-11T13:33:09;2.30;99.90
20432;DHT22;10375;49.136;10.366;2024-01-11T13:35:39;2.40;99.90
20432;DHT22;10375;49.136;10.366;2024-01-11T13:38:06;2.40;99.90
20432;DHT22;10375;49.136;10.366;2024-01-11T13:40:35;2.40;99.90
20432;DHT22;10375;49.136;10.366;2024-01-11T13:43:02;2.40;99.90
20432;DHT22;10375;49.136;10.366;2024-01-11T13:45:30;2.40;99.90
20432;DHT22;10375;49.136;10.366;2024-01-11T13:47:58;2.30;99.90
20432;DHT22;10375;49.136;10.366;2024-01-11T13:50:25;2.30;99.90
20432;DHT22;10375;49.136;10.366;2024-01-11T13:52:53;2.20;99.90
20432;DHT22;10375;49.136;10.366;2024-01-11T13:55:20;2.20;99.90
20432;DHT22;10375;49.136;10.366;2024-01-11T13:57:50;2.30;99.90
20432;DHT22;10375;49.136;10.366;2024-01-11T14:00:18;2.30;99.90
20432;DHT22;10375;49.136;10.366;2024-01-11T14:02:46;2.30;99.90
20432;DHT22;10375;49.136;10.366;2024-01-11T14:05:15;2.30;99.90
20432;DHT22;10375;49.136;10.366;2024-01-11T14:07:45;2.20;99.90
20432;DHT22;10375;49.136;10.366;2024-01-11T14:10:14;2.10;99.90
20432;DHT22;10375;49.136;10.366;2024-01-11T14:12:42;2.00;99.90
20432;DHT22;10375;49.136;10.366;2024-01-11T14:15:09;2.00;99.90
20432;DHT22;10375;49.136;10.366;2024-01-11T14:17:40;2.00;99.90
20432;DHT22;10375;49.136;10.366;2024-01-11T14:20:09;2.00;99.90
20432;DHT22;10375;49.136;10.366;2024-01-11T14:22:42;2.00;99.90
20432;DHT22;10375;49.136;10.366;2024-01-11T14:25:09;1.90;99.90
20432;DHT22;10375;49.136;10.366;2024-01-11T14:27:38;1.90;99.90
20432;DHT22;10375;49.136;10.366;2024-01-11T14:30:06;1.80;99.90
20432;DHT22;10375;49.136;10.366;2024-01-11T14:32:34;1.70;99.90
20432;DHT22;10375;49.136;10.366;2024-01-11T14:35:05;1.50;99.90
20432;DHT22;10375;49.136;10.366;2024-01-11T14:37:34;1.40;99.90
20432;DHT22;10375;49.136;10.366;2024-01-11T14:40:02;1.20;99.90
20432;DHT22;10375;49.136;10.366;2024-01-11T14:42:30;1.10;99.90
20432;DHT22;10375;49.136;10.366;2024-01-11T14:44:57;0.90;99.90
20432;DHT22;10375;49.136;10.366;2024-01-11T14:47:24;0.80;99.90
20432;DHT22;10375;49.136;10.366;2024-01-11T14:49:52;0.70;99.90
20432;DHT22;10375;49.136;10.366;2024-01-11T14:52:20;0.50;99.90
20432;DHT22;10375;49.136;10.366;2024-01-11T14:54:47;0.40;99.90
20432;DHT22;10375;49.136;10.366;2024-01-11T14:57:15;0.30;99.90
20432;DHT22;10375;49.136;10.366;2024-01-11T14:59:43;0.20;99.90
20432;DHT22;10375;49.136;10.366;2024-01-11T15:02:11;0.10;99.90
20432;DHT22;10375;49.136;10.366;2024-01-11T15:04:39;0.00;99.90
20432;DHT22;10375;49.136;10.366;2024-01-11T15:07:06;-0.10;99.90
20432;DHT22;10375;49.136;10.366;2024-01-11T15:09:37;-0.20;99.90
20432;DHT22;10375;49.136;10.366;2024-01-11T15:12:07;-0.30;99.90
20432;DHT22;10375;49.136;10.366;2024-01-11T15:14:35;-0.40;99.90
20432;DHT22;10375;49.136;10.366;2024-01-11T15:17:03;-0.50;99.90
20432;DHT22;10375;49.136;10.366;2024-01-11T15:19:30;-0.60;99.90
20432;DHT22;10375;49.136;10.366;2024-01-11T15:22:00;-0.70;99.90
20432;DHT22;10375;49.136;10.366;2024-01-11T15:24:27;-0.70;99.90
20432;DHT22;10375;49.136;10.366;2024-01-11T15:26:55;-0.80;99.90
20432;DHT22;10375;49.136;10.366;2024-01-11T15:29:26;-0.90;99.90
20432;DHT22;10375;49.136;10.366;2024-01-11T15:31:54;-1.00;99.90
20432;DHT22;10375;49.136;10.366;2024-01-11T15:34:21;-1.10;99.90